Time;durP1;ratioP1;P1;durP2;ratioP2;P2;SDS_P1;SDS_P2;PMS_P1;PMS_P2;Temp;Humidity;BMP_temperature;BMP_pressure;BME280_temperature;BME280_humidity;BME280_pressure;Samples;Min_cycle;Max_cycle;Signal;HPM_P1;HPM_P2
2023/12/25 00:01:37;;;;;;;9.90;3.13;;;;;;;;;;5052316;28;20188;-50
2023/12/25 00:04:03;;;;;;;7.83;2.83;;;;;;;;;;5050630;28;20215;-51
2023/12/25 00:06:29;;;;;;;8.93;3.07;;;;;;;;;;5048383;28;20282;-49
2023/12/25 00:08:55;;;;;;;8.87;2.60;;;;;;;;;;5052063;28;20204;-50
2023/12/25 00:11:22;;;;;;;9.40;2.50;;;;;;;;;;5050824;28;20196;-50
2023/12/25 00:13:51;;;;;;;7.03;2.40;;;;;;;;;;5051933;28;20299;-51
2023/12/25 00:16:17;;;;;;;11.03;2.90;;;;;;;;;;5051590;28;20977;-50
2023/12/25 00:18:43;;;;;;;9.27;2.70;;;;;;;;;;5051971;28;20250;-51
2023/12/25 00:21:09;;;;;;;9.33;2.50;;;;;;;;;;5052038;28;20654;-51
2023/12/25 00:23:35;;;;;;;10.03;2.40;;;;;;;;;;5052100;28;20235;-51
2023/12/25 00:26:01;;;;;;;8.77;2.63;;;;;;;;;;5051590;28;20200;-51
2023/12/25 00:28:28;;;;;;;9.43;2.63;;;;;;;;;;5052082;28;20277;-51
2023/12/25 00:30:54;;;;;;;6.17;2.40;;;;;;;;;;5051683;28;20208;-51
2023/12/25 00:33:20;;;;;;;8.90;2.93;;;;;;;;;;5051767;28;20210;-50
2023/12/25 00:35:46;;;;;;;8.47;2.93;;;;;;;;;;5051794;28;20196;-50
2023/12/25 00:38:12;;;;;;;8.17;2.63;;;;;;;;;;5047928;28;20271;-50
2023/12/25 00:40:38;;;;;;;8.87;2.37;;;;;;;;;;5045688;28;20287;-51
2023/12/25 00:43:04;;;;;;;9.60;2.60;;;;;;;;;;5070982;28;20215;-51
2023/12/25 00:45:31;;;;;;;13.87;3.30;;;;;;;;;;5071626;28;20234;-51
2023/12/25 00:47:57;;;;;;;8.03;2.40;;;;;;;;;;5051558;28;20217;-51
2023/12/25 00:50:23;;;;;;;9.40;2.70;;;;;;;;;;5045536;28;20196;-51
2023/12/25 00:52:49;;;;;;;11.57;3.00;;;;;;;;;;5039937;28;20220;-51
2023/12/25 00:55:15;;;;;;;7.90;2.70;;;;;;;;;;5042056;28;20295;-51
2023/12/25 00:57:41;;;;;;;8.50;2.90;;;;;;;;;;5039431;28;20611;-51
2023/12/25 01:00:08;;;;;;;4.70;2.13;;;;;;;;;;5039270;28;20196;-53
2023/12/25 01:02:35;;;;;;;4.63;2.30;;;;;;;;;;5047907;28;20218;-52
2023/12/25 01:05:02;;;;;;;5.57;2.53;;;;;;;;;;5047766;28;20232;-51
2023/12/25 01:07:28;;;;;;;7.47;2.00;;;;;;;;;;5046349;28;20234;-49
2023/12/25 01:09:54;;;;;;;5.00;1.90;;;;;;;;;;5041869;28;20223;-51
2023/12/25 01:12:20;;;;;;;5.27;2.20;;;;;;;;;;5040674;28;20614;-51
2023/12/25 01:14:46;;;;;;;3.60;2.10;;;;;;;;;;5040367;28;20270;-53
2023/12/25 01:17:12;;;;;;;6.13;2.50;;;;;;;;;;5041778;28;20569;-51
2023/12/25 01:19:40;;;;;;;3.10;2.07;;;;;;;;;;5040584;28;20204;-52
2023/12/25 01:22:06;;;;;;;6.47;2.03;;;;;;;;;;5040496;28;20197;-51
2023/12/25 01:24:32;;;;;;;7.53;2.50;;;;;;;;;;5041787;28;20666;-50
2023/12/25 01:26:58;;;;;;;8.00;2.20;;;;;;;;;;5040077;28;20209;-51
2023/12/25 01:29:24;;;;;;;3.77;1.90;;;;;;;;;;5041403;28;20617;-51
2023/12/25 01:31:50;;;;;;;5.20;1.87;;;;;;;;;;5060742;28;20204;-51
2023/12/25 01:34:15;;;;;;;5.77;2.20;;;;;;;;;;5071384;28;20286;-50
2023/12/25 01:36:43;;;;;;;4.57;1.70;;;;;;;;;;5071064;28;20200;-50
2023/12/25 01:39:09;;;;;;;4.10;2.10;;;;;;;;;;5070865;28;20207;-50
2023/12/25 01:41:35;;;;;;;5.03;1.90;;;;;;;;;;5070893;28;20207;-49
2023/12/25 01:44:01;;;;;;;7.03;2.50;;;;;;;;;;5071166;28;20205;-51
2023/12/25 01:46:27;;;;;;;6.63;2.40;;;;;;;;;;5070979;28;20600;-50
2023/12/25 01:48:53;;;;;;;7.77;2.20;;;;;;;;;;5063449;28;20193;-51
2023/12/25 01:51:20;;;;;;;6.37;2.20;;;;;;;;;;5051066;28;20231;-50
2023/12/25 01:53:47;;;;;;;3.43;2.00;;;;;;;;;;5052151;28;20544;-50
2023/12/25 01:56:13;;;;;;;6.83;2.20;;;;;;;;;;5054706;28;20208;-49
2023/12/25 01:58:39;;;;;;;5.23;1.90;;;;;;;;;;5054620;28;20195;-50
2023/12/25 02:01:05;;;;;;;5.40;2.00;;;;;;;;;;5053914;28;20658;-50
2023/12/25 02:03:31;;;;;;;3.47;1.67;;;;;;;;;;5054664;28;20196;-50
2023/12/25 02:05:57;;;;;;;6.83;1.90;;;;;;;;;;5054116;28;20566;-50
2023/12/25 02:08:23;;;;;;;6.63;2.10;;;;;;;;;;5070733;28;20628;-50
2023/12/25 02:10:50;;;;;;;4.63;2.17;;;;;;;;;;5074318;28;20200;-50
2023/12/25 02:13:16;;;;;;;5.50;2.17;;;;;;;;;;5074399;28;20673;-50
2023/12/25 02:15:43;;;;;;;7.30;2.20;;;;;;;;;;5074379;28;20199;-49
2023/12/25 02:18:09;;;;;;;5.07;2.10;;;;;;;;;;5074028;28;20235;-49
2023/12/25 02:20:35;;;;;;;3.63;1.80;;;;;;;;;;5074382;28;20195;-50
2023/12/25 02:23:03;;;;;;;5.37;2.20;;;;;;;;;;5074268;28;20200;-50
2023/12/25 02:25:31;;;;;;;6.40;1.80;;;;;;;;;;5074656;28;20191;-50
2023/12/25 02:27:59;;;;;;;7.00;1.97;;;;;;;;;;5074239;28;20230;-50
2023/12/25 02:30:25;;;;;;;4.67;2.00;;;;;;;;;;5074332;28;20245;-50
2023/12/25 02:32:51;;;;;;;4.73;1.93;;;;;;;;;;5074131;28;20592;-50
2023/12/25 02:35:17;;;;;;;5.10;2.23;;;;;;;;;;5073886;28;20203;-50
2023/12/25 02:37:43;;;;;;;8.50;2.43;;;;;;;;;;5074248;28;20275;-50
2023/12/25 02:40:09;;;;;;;4.63;2.30;;;;;;;;;;5074033;28;20223;-49
2023/12/25 02:42:35;;;;;;;6.83;2.47;;;;;;;;;;5074086;28;20218;-50
2023/12/25 02:45:02;;;;;;;5.17;1.87;;;;;;;;;;5073844;28;20215;-50
2023/12/25 02:47:28;;;;;;;5.03;2.00;;;;;;;;;;5073854;28;20614;-50
2023/12/25 02:49:54;;;;;;;6.97;2.00;;;;;;;;;;5073814;28;20226;-50
2023/12/25 02:52:20;;;;;;;5.93;2.00;;;;;;;;;;5073763;28;20192;-50
2023/12/25 02:54:46;;;;;;;5.17;2.30;;;;;;;;;;5073870;28;20627;-50
2023/12/25 02:57:12;;;;;;;5.03;1.90;;;;;;;;;;5073592;28;20206;-50
2023/12/25 02:59:38;;;;;;;5.90;2.20;;;;;;;;;;5073711;28;20211;-49
2023/12/25 03:02:06;;;;;;;6.50;2.20;;;;;;;;;;5073542;28;20203;-50
2023/12/25 03:04:32;;;;;;;5.73;2.10;;;;;;;;;;5073700;28;20207;-50
2023/12/25 03:06:58;;;;;;;7.40;2.27;;;;;;;;;;5073386;28;20219;-49
2023/12/25 03:09:24;;;;;;;3.37;1.50;;;;;;;;;;5073635;28;20677;-49
2023/12/25 03:11:49;;;;;;;4.73;1.73;;;;;;;;;;5073436;28;20206;-49
2023/12/25 03:14:15;;;;;;;4.23;1.70;;;;;;;;;;5073399;28;20684;-50
2023/12/25 03:16:41;;;;;;;7.43;2.10;;;;;;;;;;5073245;28;20219;-50
2023/12/25 03:19:09;;;;;;;3.23;1.70;;;;;;;;;;5073133;28;20264;-50
2023/12/25 03:21:35;;;;;;;6.80;1.53;;;;;;;;;;5073253;28;20282;-50
2023/12/25 03:24:01;;;;;;;5.00;1.90;;;;;;;;;;5073279;28;20736;-50
2023/12/25 03:26:27;;;;;;;4.80;2.10;;;;;;;;;;5073194;28;20195;-50
2023/12/25 03:28:53;;;;;;;6.53;1.97;;;;;;;;;;5072940;28;20199;-50
2023/12/25 03:31:19;;;;;;;3.43;1.70;;;;;;;;;;5073043;28;20250;-50
2023/12/25 03:33:45;;;;;;;2.97;1.40;;;;;;;;;;5073140;28;20628;-49
2023/12/25 03:36:13;;;;;;;3.13;1.60;;;;;;;;;;5072943;28;20211;-50
2023/12/25 03:38:39;;;;;;;3.37;1.67;;;;;;;;;;5072989;28;20231;-49
2023/12/25 03:41:07;;;;;;;4.00;1.43;;;;;;;;;;5072687;28;20227;-49
2023/12/25 03:43:33;;;;;;;4.10;1.70;;;;;;;;;;5072797;28;20684;-49
2023/12/25 03:45:59;;;;;;;8.83;2.13;;;;;;;;;;5072549;28;20235;-50
2023/12/25 03:48:25;;;;;;;3.70;1.70;;;;;;;;;;5072776;28;20585;-49
2023/12/25 03:50:51;;;;;;;3.43;1.37;;;;;;;;;;5072687;28;20223;-49
2023/12/25 03:53:19;;;;;;;2.63;1.40;;;;;;;;;;5072662;28;20227;-49
2023/12/25 03:55:44;;;;;;;4.47;1.60;;;;;;;;;;5072624;28;20198;-50
2023/12/25 03:58:10;;;;;;;4.27;1.50;;;;;;;;;;5072554;28;20296;-50
2023/12/25 04:00:36;;;;;;;5.93;2.00;;;;;;;;;;5072431;28;20290;-50
2023/12/25 04:03:03;;;;;;;5.50;1.90;;;;;;;;;;5072317;28;20684;-50
2023/12/25 04:05:29;;;;;;;4.53;1.97;;;;;;;;;;5072045;28;20683;-50
2023/12/25 04:07:54;;;;;;;4.20;1.83;;;;;;;;;;5072207;28;20310;-50
2023/12/25 04:10:22;;;;;;;5.93;1.93;;;;;;;;;;5072352;28;20265;-50
2023/12/25 04:12:48;;;;;;;3.77;1.80;;;;;;;;;;5072378;28;20210;-50
2023/12/25 04:15:14;;;;;;;5.47;2.03;;;;;;;;;;5072150;28;20200;-50
2023/12/25 04:17:40;;;;;;;3.10;1.50;;;;;;;;;;5071855;28;20226;-50
2023/12/25 04:20:06;;;;;;;4.20;1.90;;;;;;;;;;5072121;28;20195;-50
2023/12/25 04:22:32;;;;;;;4.40;1.43;;;;;;;;;;5070861;28;20219;-50
2023/12/25 04:24:58;;;;;;;2.20;1.40;;;;;;;;;;5072087;28;20254;-50
2023/12/25 04:27:26;;;;;;;3.17;1.60;;;;;;;;;;5072223;28;20227;-50
2023/12/25 04:29:52;;;;;;;4.00;1.63;;;;;;;;;;5072018;28;20208;-50
2023/12/25 04:32:18;;;;;;;4.00;1.80;;;;;;;;;;5072047;28;20199;-50
2023/12/25 04:34:44;;;;;;;3.17;1.70;;;;;;;;;;5072148;28;20547;-50
2023/12/25 04:37:10;;;;;;;4.67;1.80;;;;;;;;;;5071822;28;20200;-50
2023/12/25 04:39:36;;;;;;;6.03;1.70;;;;;;;;;;5072100;28;20202;-50
2023/12/25 04:42:02;;;;;;;6.27;1.50;;;;;;;;;;5071964;28;20253;-50
2023/12/25 04:44:30;;;;;;;3.63;1.70;;;;;;;;;;5071943;28;20643;-49
2023/12/25 04:46:55;;;;;;;3.57;1.60;;;;;;;;;;5071501;28;20293;-50
2023/12/25 04:49:22;;;;;;;4.90;1.80;;;;;;;;;;5072018;28;20203;-50
2023/12/25 04:51:48;;;;;;;5.47;1.50;;;;;;;;;;5071964;28;20204;-49
2023/12/25 04:54:14;;;;;;;3.37;1.40;;;;;;;;;;5071887;28;20257;-50
2023/12/25 04:56:40;;;;;;;3.20;1.60;;;;;;;;;;5071823;28;20261;-50
2023/12/25 04:59:06;;;;;;;4.23;1.60;;;;;;;;;;5071653;28;20234;-50
2023/12/25 05:01:33;;;;;;;5.07;1.50;;;;;;;;;;5071710;28;20244;-50
2023/12/25 05:03:59;;;;;;;3.83;1.60;;;;;;;;;;5062912;28;20227;-49
2023/12/25 05:06:25;;;;;;;3.50;1.33;;;;;;;;;;5060831;28;20203;-49
2023/12/25 05:08:51;;;;;;;4.10;1.43;;;;;;;;;;5059353;28;20269;-50
2023/12/25 05:11:17;;;;;;;4.97;2.37;;;;;;;;;;5059066;28;20732;-49
2023/12/25 05:13:43;;;;;;;5.37;1.63;;;;;;;;;;5059233;28;20245;-49
2023/12/25 05:16:09;;;;;;;5.53;1.83;;;;;;;;;;5060414;28;20677;-50
2023/12/25 05:18:37;;;;;;;3.93;1.60;;;;;;;;;;5059148;28;20219;-50
2023/12/25 05:21:03;;;;;;;3.47;1.50;;;;;;;;;;5061855;28;20774;-50
2023/12/25 05:23:29;;;;;;;4.93;1.60;;;;;;;;;;5071521;28;20266;-50
2023/12/25 05:25:55;;;;;;;3.93;1.70;;;;;;;;;;5071342;28;20199;-50
2023/12/25 05:28:21;;;;;;;4.87;1.37;;;;;;;;;;5071577;28;20231;-50
2023/12/25 05:30:47;;;;;;;4.97;1.70;;;;;;;;;;5075179;28;20207;-50
2023/12/25 05:33:13;;;;;;;3.63;1.43;;;;;;;;;;5074406;28;20577;-50
2023/12/25 05:35:40;;;;;;;6.63;2.07;;;;;;;;;;5075020;28;20741;-50
2023/12/25 05:38:06;;;;;;;4.00;1.63;;;;;;;;;;5074922;28;20203;-50
2023/12/25 05:40:32;;;;;;;2.90;1.67;;;;;;;;;;5075182;28;20210;-50
2023/12/25 05:42:58;;;;;;;5.90;2.03;;;;;;;;;;5074787;28;20210;-50
2023/12/25 05:45:24;;;;;;;4.20;1.60;;;;;;;;;;5074579;28;20212;-50
2023/12/25 05:47:50;;;;;;;5.03;1.67;;;;;;;;;;5074838;28;20239;-50
2023/12/25 05:50:16;;;;;;;5.27;2.00;;;;;;;;;;5074783;28;20204;-49
2023/12/25 05:52:43;;;;;;;3.67;1.77;;;;;;;;;;5074921;28;20204;-50
2023/12/25 05:55:10;;;;;;;4.03;1.70;;;;;;;;;;5074575;28;20204;-50
2023/12/25 05:57:36;;;;;;;5.40;1.60;;;;;;;;;;5074822;28;20215;-50
2023/12/25 06:00:03;;;;;;;5.60;1.77;;;;;;;;;;5074596;28;20231;-50
2023/12/25 06:02:29;;;;;;;5.67;1.70;;;;;;;;;;5074575;28;20294;-50
2023/12/25 06:04:55;;;;;;;2.53;1.23;;;;;;;;;;5074534;28;20274;-49
2023/12/25 06:07:21;;;;;;;3.47;1.70;;;;;;;;;;5074533;28;20273;-50
2023/12/25 06:09:48;;;;;;;3.10;1.40;;;;;;;;;;5074535;28;20575;-49
2023/12/25 06:12:14;;;;;;;5.77;1.60;;;;;;;;;;5074425;28;20214;-50
2023/12/25 06:14:40;;;;;;;3.40;1.40;;;;;;;;;;5074428;28;20204;-50
2023/12/25 06:17:06;;;;;;;2.67;1.60;;;;;;;;;;5074058;28;20615;-49
2023/12/25 06:19:32;;;;;;;4.43;1.90;;;;;;;;;;5074486;28;20203;-49
2023/12/25 06:21:58;;;;;;;6.87;2.20;;;;;;;;;;5074539;28;20198;-50
2023/12/25 06:24:24;;;;;;;5.00;1.50;;;;;;;;;;5074261;28;20641;-50
2023/12/25 06:26:51;;;;;;;3.30;1.60;;;;;;;;;;5074332;28;20235;-49
2023/12/25 06:29:17;;;;;;;9.93;1.80;;;;;;;;;;5074121;28;20203;-49
2023/12/25 06:31:46;;;;;;;5.53;1.93;;;;;;;;;;5074228;28;20207;-50
2023/12/25 06:34:12;;;;;;;4.70;1.67;;;;;;;;;;5074173;28;20278;-49
2023/12/25 06:36:38;;;;;;;3.67;1.50;;;;;;;;;;5074034;28;20223;-50
2023/12/25 06:39:04;;;;;;;4.90;2.03;;;;;;;;;;5073679;28;20215;-49
2023/12/25 06:41:30;;;;;;;6.07;2.10;;;;;;;;;;5074271;28;20661;-49
2023/12/25 06:43:58;;;;;;;3.23;1.47;;;;;;;;;;5073983;28;20662;-50
2023/12/25 06:46:24;;;;;;;5.53;1.70;;;;;;;;;;5073693;28;20262;-50
2023/12/25 06:48:50;;;;;;;3.63;1.83;;;;;;;;;;5073977;28;20712;-49
2023/12/25 06:51:16;;;;;;;3.70;1.77;;;;;;;;;;5073859;28;20203;-49
2023/12/25 06:53:42;;;;;;;3.97;1.40;;;;;;;;;;5073900;28;20687;-49
2023/12/25 06:56:08;;;;;;;5.97;1.70;;;;;;;;;;5073813;28;20283;-49
2023/12/25 06:58:34;;;;;;;8.03;1.80;;;;;;;;;;5073820;28;20358;-50
2023/12/25 07:01:06;;;;;;;2.97;1.40;;;;;;;;;;5073632;28;20222;-49
2023/12/25 07:03:32;;;;;;;8.33;1.93;;;;;;;;;;5073873;28;20293;-49
2023/12/25 07:05:58;;;;;;;5.77;1.93;;;;;;;;;;5064280;28;20634;-49
2023/12/25 07:08:27;;;;;;;4.57;1.73;;;;;;;;;;5053302;28;20239;-49
2023/12/25 07:10:53;;;;;;;5.27;1.37;;;;;;;;;;5053397;28;20204;-49
2023/12/25 07:13:19;;;;;;;6.20;1.60;;;;;;;;;;5053360;28;20541;-49
2023/12/25 07:15:45;;;;;;;4.27;2.20;;;;;;;;;;5050331;28;20250;-49
2023/12/25 07:18:13;;;;;;;2.40;1.40;;;;;;;;;;5033277;28;20576;-49
2023/12/25 07:20:39;;;;;;;4.90;1.60;;;;;;;;;;5033302;28;20644;-49
2023/12/25 07:23:04;;;;;;;5.93;1.93;;;;;;;;;;5033253;28;20193;-49
2023/12/25 07:25:30;;;;;;;3.93;1.70;;;;;;;;;;5033285;28;20216;-49
2023/12/25 07:27:57;;;;;;;3.57;1.70;;;;;;;;;;5033183;28;20225;-49
2023/12/25 07:30:23;;;;;;;6.27;1.90;;;;;;;;;;5033029;28;20262;-49
2023/12/25 07:32:49;;;;;;;2.77;1.73;;;;;;;;;;5033239;28;20253;-49
2023/12/25 07:35:16;;;;;;;4.80;1.70;;;;;;;;;;5033113;28;20292;-49
2023/12/25 07:37:42;;;;;;;4.17;1.80;;;;;;;;;;5032898;28;20204;-49
2023/12/25 07:40:10;;;;;;;2.60;1.30;;;;;;;;;;5032347;28;20201;-49
2023/12/25 07:42:37;;;;;;;6.07;2.17;;;;;;;;;;5033060;28;20209;-49
2023/12/25 07:45:03;;;;;;;5.53;1.93;;;;;;;;;;5032823;28;20655;-49
2023/12/25 07:47:29;;;;;;;4.47;1.70;;;;;;;;;;5032321;28;20237;-49
2023/12/25 07:49:55;;;;;;;6.03;1.80;;;;;;;;;;5032845;28;20689;-49
2023/12/25 07:52:22;;;;;;;5.40;1.90;;;;;;;;;;5031930;28;20243;-49
2023/12/25 07:54:48;;;;;;;3.53;1.60;;;;;;;;;;5032798;28;20200;-49
2023/12/25 07:57:16;;;;;;;8.57;1.83;;;;;;;;;;5032557;28;20203;-49
2023/12/25 07:59:42;;;;;;;2.60;1.70;;;;;;;;;;5032580;28;20674;-49
2023/12/25 08:02:08;;;;;;;4.00;1.63;;;;;;;;;;5032548;28;20232;-48
2023/12/25 08:04:34;;;;;;;4.87;1.80;;;;;;;;;;5032606;28;20215;-49
2023/12/25 08:07:00;;;;;;;8.53;1.90;;;;;;;;;;5032499;28;20247;-48
2023/12/25 08:09:28;;;;;;;3.33;1.77;;;;;;;;;;5032467;28;20722;-48
2023/12/25 08:11:54;;;;;;;3.07;1.47;;;;;;;;;;5048379;28;20801;-47
2023/12/25 08:14:20;;;;;;;6.63;1.90;;;;;;;;;;5052067;28;20290;-48
2023/12/25 08:16:46;;;;;;;6.03;2.10;;;;;;;;;;5052272;28;20220;-48
2023/12/25 08:19:12;;;;;;;5.17;1.73;;;;;;;;;;5052147;28;20195;-48
2023/12/25 08:21:39;;;;;;;2.87;1.60;;;;;;;;;;5048957;28;20375;-48
2023/12/25 08:24:05;;;;;;;3.23;1.50;;;;;;;;;;5052141;28;20200;-48
2023/12/25 08:26:32;;;;;;;3.70;1.73;;;;;;;;;;5052135;28;20279;-47
2023/12/25 08:28:58;;;;;;;8.20;2.20;;;;;;;;;;5052002;28;20227;-47
2023/12/25 08:31:24;;;;;;;5.23;1.80;;;;;;;;;;5052017;28;20203;-48
2023/12/25 08:33:50;;;;;;;4.30;1.93;;;;;;;;;;5052112;28;20550;-48
2023/12/25 08:36:16;;;;;;;3.33;1.60;;;;;;;;;;5052025;28;20279;-48
2023/12/25 08:38:42;;;;;;;2.80;1.43;;;;;;;;;;5051980;28;20192;-48
2023/12/25 08:41:08;;;;;;;4.23;1.60;;;;;;;;;;5051828;28;20208;-48
2023/12/25 08:43:35;;;;;;;5.37;2.10;;;;;;;;;;5045695;28;20674;-48
2023/12/25 08:46:01;;;;;;;2.77;1.77;;;;;;;;;;5051719;28;20236;-48
2023/12/25 08:48:27;;;;;;;5.10;1.80;;;;;;;;;;5051640;28;20231;-48
2023/12/25 08:50:53;;;;;;;3.70;1.87;;;;;;;;;;5051684;28;20608;-48
2023/12/25 08:53:19;;;;;;;5.83;1.70;;;;;;;;;;5051697;28;20204;-48
2023/12/25 08:55:46;;;;;;;5.57;1.87;;;;;;;;;;5051787;28;20196;-48
2023/12/25 08:58:12;;;;;;;5.40;1.77;;;;;;;;;;5051682;28;20196;-48
2023/12/25 09:00:39;;;;;;;4.87;1.60;;;;;;;;;;5051773;28;20207;-48
2023/12/25 09:03:06;;;;;;;7.20;4.37;;;;;;;;;;5052762;28;20204;-48
2023/12/25 09:05:32;;;;;;;101.90;71.83;;;;;;;;;;5050468;28;20199;-48
2023/12/25 09:07:58;;;;;;;7.53;5.20;;;;;;;;;;5055702;28;20725;-48
2023/12/25 09:10:24;;;;;;;14.27;10.37;;;;;;;;;;5055537;28;20231;-48
2023/12/25 09:12:50;;;;;;;96.27;85.67;;;;;;;;;;5055632;28;20210;-49
2023/12/25 09:15:16;;;;;;;32.23;28.07;;;;;;;;;;5055513;28;20200;-49
2023/12/25 09:17:45;;;;;;;11.43;6.80;;;;;;;;;;5055541;28;20273;-48
2023/12/25 09:20:11;;;;;;;18.07;11.93;;;;;;;;;;5055617;28;20203;-48
2023/12/25 09:22:37;;;;;;;7.30;2.17;;;;;;;;;;5055667;28;20291;-48
2023/12/25 09:25:03;;;;;;;125.17;86.03;;;;;;;;;;5055436;28;20196;-49
2023/12/25 09:27:30;;;;;;;17.30;10.83;;;;;;;;;;5055352;28;20228;-48
2023/12/25 09:29:55;;;;;;;19.80;14.53;;;;;;;;;;5055185;28;20216;-48
2023/12/25 09:32:21;;;;;;;6.10;2.30;;;;;;;;;;5055205;28;20227;-48
2023/12/25 09:34:49;;;;;;;7.97;4.27;;;;;;;;;;5055245;28;20724;-48
2023/12/25 09:37:15;;;;;;;5.23;2.50;;;;;;;;;;5045293;28;20201;-48
2023/12/25 09:39:43;;;;;;;7.20;2.87;;;;;;;;;;5035049;28;20196;-49
2023/12/25 09:42:12;;;;;;;21.13;17.30;;;;;;;;;;5034832;28;20279;-50
2023/12/25 09:44:38;;;;;;;52.33;45.10;;;;;;;;;;5034852;28;20201;-49
2023/12/25 09:47:06;;;;;;;7.63;3.07;;;;;;;;;;5034819;28;20243;-49
2023/12/25 09:49:33;;;;;;;6.27;3.73;;;;;;;;;;5034868;28;20282;-47
2023/12/25 09:52:00;;;;;;;9.67;6.47;;;;;;;;;;5035000;28;20789;-47
2023/12/25 09:54:26;;;;;;;8.63;3.80;;;;;;;;;;5034663;28;20201;-47
2023/12/25 09:56:53;;;;;;;4.40;2.30;;;;;;;;;;5073482;28;20282;-48
2023/12/25 09:59:19;;;;;;;5.30;2.60;;;;;;;;;;5074281;28;20199;-48
2023/12/25 10:01:46;;;;;;;4.63;2.23;;;;;;;;;;5072927;28;20295;-48
2023/12/25 10:04:12;;;;;;;5.37;2.20;;;;;;;;;;5064077;28;20202;-49
2023/12/25 10:06:38;;;;;;;4.10;1.60;;;;;;;;;;5065535;28;20200;-48
2023/12/25 10:09:05;;;;;;;7.27;2.47;;;;;;;;;;5067149;28;20265;-48
2023/12/25 10:11:31;;;;;;;5.63;2.03;;;;;;;;;;5063839;28;20215;-48
2023/12/25 10:13:57;;;;;;;5.27;2.60;;;;;;;;;;5063050;28;20208;-48
2023/12/25 10:16:23;;;;;;;5.83;1.90;;;;;;;;;;5040611;28;20686;-48
2023/12/25 10:18:49;;;;;;;7.27;2.93;;;;;;;;;;5027316;28;20247;-50
2023/12/25 10:21:16;;;;;;;7.63;2.20;;;;;;;;;;5029085;28;20196;-49
2023/12/25 10:23:42;;;;;;;6.00;2.07;;;;;;;;;;5043955;28;20215;-49
2023/12/25 10:26:09;;;;;;;7.60;2.10;;;;;;;;;;5068342;28;20212;-50
2023/12/25 10:28:35;;;;;;;6.00;1.77;;;;;;;;;;5064933;28;20227;-49
2023/12/25 10:31:02;;;;;;;3.90;1.47;;;;;;;;;;5067200;28;20199;-49
2023/12/25 10:33:28;;;;;;;5.77;2.10;;;;;;;;;;5066946;28;20198;-49
2023/12/25 10:36:02;;;;;;;5.40;2.30;;;;;;;;;;5065381;28;20195;-49
2023/12/25 10:38:28;;;;;;;6.17;1.90;;;;;;;;;;5065074;28;20249;-49
2023/12/25 10:40:54;;;;;;;3.27;1.70;;;;;;;;;;5066971;28;20199;-49
2023/12/25 10:43:22;;;;;;;7.47;2.47;;;;;;;;;;5064845;28;20218;-49
2023/12/25 10:45:50;;;;;;;5.53;1.67;;;;;;;;;;5063040;28;20231;-49
2023/12/25 10:48:18;;;;;;;5.13;2.73;;;;;;;;;;5070008;28;20235;-49
2023/12/25 10:50:45;;;;;;;5.50;2.03;;;;;;;;;;5066800;28;20195;-49
2023/12/25 10:53:16;;;;;;;5.30;3.30;;;;;;;;;;5066425;28;20661;-49
2023/12/25 10:55:43;;;;;;;10.50;2.47;;;;;;;;;;5071841;28;20231;-49
2023/12/25 10:58:11;;;;;;;5.30;2.23;;;;;;;;;;5068188;28;20612;-50
2023/12/25 11:00:39;;;;;;;4.67;2.23;;;;;;;;;;5067761;28;20218;-49
2023/12/25 11:03:05;;;;;;;4.83;2.40;;;;;;;;;;5064112;28;20290;-49
2023/12/25 11:05:32;;;;;;;7.23;2.27;;;;;;;;;;5048168;28;20203;-48
2023/12/25 11:07:58;;;;;;;9.60;5.27;;;;;;;;;;5049318;28;20231;-49
2023/12/25 11:10:25;;;;;;;4.60;2.13;;;;;;;;;;5046132;28;20689;-49
2023/12/25 11:12:51;;;;;;;2.23;1.50;;;;;;;;;;5044018;28;20706;-49
2023/12/25 11:15:17;;;;;;;5.90;2.33;;;;;;;;;;5044580;28;20208;-49
2023/12/25 11:17:45;;;;;;;6.10;3.23;;;;;;;;;;5048647;28;20251;-50
2023/12/25 11:20:11;;;;;;;3.67;1.60;;;;;;;;;;5069082;28;20269;-49
2023/12/25 11:22:39;;;;;;;5.20;2.70;;;;;;;;;;5069037;28;20234;-49
2023/12/25 11:25:10;;;;;;;6.40;2.30;;;;;;;;;;5064402;28;20299;-49
2023/12/25 11:27:36;;;;;;;5.87;1.77;;;;;;;;;;5062616;28;20224;-49
2023/12/25 11:30:03;;;;;;;6.87;3.50;;;;;;;;;;5065688;28;20200;-49
2023/12/25 11:32:32;;;;;;;5.23;2.10;;;;;;;;;;5067298;28;20197;-49
2023/12/25 11:35:00;;;;;;;3.60;1.90;;;;;;;;;;5069325;28;20199;-49
2023/12/25 11:37:26;;;;;;;5.57;1.93;;;;;;;;;;5062750;28;20203;-49
2023/12/25 11:39:53;;;;;;;4.23;2.07;;;;;;;;;;5067383;28;20649;-49
2023/12/25 11:42:20;;;;;;;4.73;2.30;;;;;;;;;;5068994;28;20204;-49
2023/12/25 11:44:48;;;;;;;3.97;1.80;;;;;;;;;;5070894;28;20202;-49
2023/12/25 11:47:14;;;;;;;5.43;1.87;;;;;;;;;;5061733;28;20559;-48
2023/12/25 11:49:40;;;;;;;5.50;1.40;;;;;;;;;;5068680;28;20740;-49
2023/12/25 11:52:07;;;;;;;6.70;2.03;;;;;;;;;;5072236;28;20218;-49
2023/12/25 11:54:36;;;;;;;3.87;1.70;;;;;;;;;;5068326;28;20207;-49
2023/12/25 11:57:16;;;;;;;6.63;2.00;;;;;;;;;;5063269;28;20783;-50
2023/12/25 11:59:42;;;;;;;4.93;1.70;;;;;;;;;;5070315;28;20657;-47
2023/12/25 12:02:09;;;;;;;3.93;2.20;;;;;;;;;;5065220;28;20260;-47
2023/12/25 12:04:35;;;;;;;6.57;2.00;;;;;;;;;;5072018;28;20207;-47
2023/12/25 12:07:01;;;;;;;4.70;1.93;;;;;;;;;;5068168;28;20677;-47
2023/12/25 12:09:28;;;;;;;5.50;1.93;;;;;;;;;;5069580;28;20223;-47
2023/12/25 12:11:54;;;;;;;5.10;1.90;;;;;;;;;;5066739;28;20609;-47
2023/12/25 12:14:21;;;;;;;3.10;1.60;;;;;;;;;;5071603;28;20681;-47
2023/12/25 12:16:47;;;;;;;3.77;1.57;;;;;;;;;;5064537;28;20310;-47
2023/12/25 12:19:14;;;;;;;6.40;1.97;;;;;;;;;;5065619;28;20231;-47
2023/12/25 12:21:40;;;;;;;12.80;2.47;;;;;;;;;;5066188;28;20200;-47
2023/12/25 12:24:06;;;;;;;7.60;1.90;;;;;;;;;;5068866;28;20701;-48
2023/12/25 12:26:33;;;;;;;6.50;2.10;;;;;;;;;;5071351;28;20206;-47
2023/12/25 12:28:59;;;;;;;4.47;2.07;;;;;;;;;;5065559;28;20248;-47
2023/12/25 12:31:25;;;;;;;7.27;2.57;;;;;;;;;;5071159;28;20203;-47
2023/12/25 12:33:51;;;;;;;4.57;2.00;;;;;;;;;;5065914;28;20204;-49
2023/12/25 12:36:17;;;;;;;4.70;1.67;;;;;;;;;;5065274;28;20195;-49
2023/12/25 12:38:43;;;;;;;3.93;2.10;;;;;;;;;;5066823;28;20192;-49
2023/12/25 12:41:11;;;;;;;4.47;1.60;;;;;;;;;;5067941;28;20286;-49
2023/12/25 12:43:43;;;;;;;6.50;2.10;;;;;;;;;;5071550;28;20298;-49
2023/12/25 12:46:15;;;;;;;5.17;1.70;;;;;;;;;;5065776;28;20238;-48
2023/12/25 12:48:43;;;;;;;6.67;2.03;;;;;;;;;;5069173;28;20223;-47
2023/12/25 12:51:10;;;;;;;7.07;2.23;;;;;;;;;;5061103;28;20203;-47
2023/12/25 12:53:36;;;;;;;4.97;2.17;;;;;;;;;;5065698;28;20699;-49
2023/12/25 12:56:02;;;;;;;4.13;1.80;;;;;;;;;;5069482;28;20245;-45
2023/12/25 12:58:28;;;;;;;3.37;1.60;;;;;;;;;;5063800;28;20187;-48
2023/12/25 13:00:57;;;;;;;7.50;2.23;;;;;;;;;;5065502;28;20665;-48
2023/12/25 13:03:23;;;;;;;17.80;11.87;;;;;;;;;;5065840;28;20636;-48
2023/12/25 13:05:49;;;;;;;5.57;3.03;;;;;;;;;;5067709;28;20286;-48
2023/12/25 13:08:15;;;;;;;5.37;2.30;;;;;;;;;;5069422;28;20241;-48
2023/12/25 13:10:41;;;;;;;5.53;2.47;;;;;;;;;;5030053;28;20209;-49
2023/12/25 13:13:07;;;;;;;7.17;2.47;;;;;;;;;;5029618;28;20331;-49
2023/12/25 13:15:33;;;;;;;4.77;2.13;;;;;;;;;;5027358;28;20714;-47
2023/12/25 13:18:00;;;;;;;3.20;1.90;;;;;;;;;;5027510;28;20221;-48
2023/12/25 13:20:26;;;;;;;6.33;3.17;;;;;;;;;;5027477;28;20243;-48
2023/12/25 13:22:52;;;;;;;4.90;2.30;;;;;;;;;;5029570;28;20224;-48
2023/12/25 13:25:18;;;;;;;9.00;2.47;;;;;;;;;;5024605;28;20284;-48
2023/12/25 13:27:44;;;;;;;4.60;2.00;;;;;;;;;;5028041;28;20220;-48
2023/12/25 13:30:11;;;;;;;4.93;1.83;;;;;;;;;;5028324;28;20213;-48
2023/12/25 13:32:37;;;;;;;5.37;1.87;;;;;;;;;;5027692;28;20280;-48
2023/12/25 13:35:04;;;;;;;4.00;1.90;;;;;;;;;;5023912;28;20288;-48
2023/12/25 13:37:30;;;;;;;8.93;2.53;;;;;;;;;;5029731;28;20617;-48
2023/12/25 13:40:00;;;;;;;6.90;2.63;;;;;;;;;;5024121;28;20651;-48
2023/12/25 13:42:27;;;;;;;8.53;2.47;;;;;;;;;;5029417;28;20206;-47
2023/12/25 13:44:54;;;;;;;6.13;3.87;;;;;;;;;;5029395;28;20201;-48
2023/12/25 13:47:20;;;;;;;6.80;2.10;;;;;;;;;;5028888;28;20243;-48
2023/12/25 13:49:46;;;;;;;4.27;1.63;;;;;;;;;;5031090;28;20606;-48
2023/12/25 13:52:13;;;;;;;5.10;2.50;;;;;;;;;;5030533;28;20705;-48
2023/12/25 13:54:39;;;;;;;4.37;2.07;;;;;;;;;;5034335;28;20197;-48
2023/12/25 13:57:05;;;;;;;5.07;3.23;;;;;;;;;;5035041;28;20199;-48
2023/12/25 13:59:31;;;;;;;10.57;8.30;;;;;;;;;;5034818;28;20604;-48
2023/12/25 14:01:57;;;;;;;5.93;2.10;;;;;;;;;;5034596;28;20713;-48
2023/12/25 14:04:23;;;;;;;5.60;2.60;;;;;;;;;;5034840;28;20212;-48
2023/12/25 14:06:49;;;;;;;7.87;1.87;;;;;;;;;;5034814;28;20196;-48
2023/12/25 14:09:17;;;;;;;4.77;1.43;;;;;;;;;;5034656;28;20694;-48
2023/12/25 14:11:43;;;;;;;5.43;1.57;;;;;;;;;;5034251;28;20197;-48
2023/12/25 14:14:09;;;;;;;5.70;1.83;;;;;;;;;;5034384;28;20304;-47
2023/12/25 14:16:35;;;;;;;8.50;2.13;;;;;;;;;;5030516;28;20699;-48
2023/12/25 14:19:01;;;;;;;5.77;2.10;;;;;;;;;;5034542;28;20232;-48
2023/12/25 14:21:27;;;;;;;7.47;2.13;;;;;;;;;;5033973;28;20617;-48
2023/12/25 14:23:53;;;;;;;4.30;1.70;;;;;;;;;;5032253;28;20258;-48
2023/12/25 14:26:20;;;;;;;6.23;1.80;;;;;;;;;;5028457;28;20204;-47
2023/12/25 14:28:46;;;;;;;7.33;2.60;;;;;;;;;;5033871;28;20315;-48
2023/12/25 14:31:12;;;;;;;4.70;1.90;;;;;;;;;;5034566;28;20277;-48
2023/12/25 14:33:43;;;;;;;4.53;1.80;;;;;;;;;;5034113;28;20312;-47
2023/12/25 14:36:09;;;;;;;4.67;2.00;;;;;;;;;;5034259;28;20200;-48